Wye River — WDE3583 — position and weather

sailwx.info

Track history (hours):
 
Tides and Currents Weather Stations Pressure Air Temp Water Temp Dewpoint Dewpoint Depression Visibility Wind Speed Wind Dir Waves Ship Positions

Wye River

Owner: Vane Line Bunkering, Inc., Baltimore, MD. More information available from US FCC via Universal Licensing System and Coast Guard Vessel Documentation Center.

Last reported at 2016-Feb-12 13:33 UTC. Time now 2016-Feb-13 17:19 UTC.
Position N 40°39' W 074°09'.

Length 30 m; draft 4.3 m.

Type: Tow > 200 m length. MMSI: 367341190.

Date/timePositionNaut miles runAvg speedWind from/ knotsBaromVisibWave heightAir tempDewpointWater temp
2016-Feb-12 13:33N 40°39' W 074°09'2 1.5
2016-Feb-12 12:06N 40°41' W 074°09'0 0.0
2016-Feb-12 10:20N 40°41' W 074°09'0 0.0
2016-Feb-12 05:25N 40°41' W 074°09'0 0.0
2016-Feb-12 04:27N 40°41' W 074°09'0 0.0
2016-Feb-12 03:33N 40°41' W 074°09'0 0.0
2016-Feb-12 02:33N 40°41' W 074°09'0 0.0
2016-Feb-12 01:24N 40°41' W 074°09'3 3.7
2016-Feb-12 00:33N 40°39' W 074°07'3 3.2
2016-Feb-11 23:33N 40°37' W 074°03'6 6.5
2016-Feb-11 22:33N 40°44' W 074°01'4 3.8
2016-Feb-11 21:33N 40°40' W 074°03'52 3.7
2016-Feb-11 07:33N 39°48' W 074°03'9 9.3
2016-Feb-11 06:33N 39°39' W 074°07'60 9.5
2016-Feb-11 00:14N 38°50' W 074°52'6 9.0
2016-Feb-10 23:33N 38°48' W 074°59'9 8.5
2016-Feb-10 22:33N 38°55' W 075°05'50 9.7
2016-Feb-10 17:22N 39°42' W 075°31'6 7.6
2016-Feb-10 16:33N 39°47' W 075°27'4 4.2
2016-Feb-10 15:33N 39°49' W 075°23'7 6.9
2016-Feb-10 14:33N 39°51' W 075°14'3 2.7
2016-Feb-10 13:33N 39°54' W 075°12'0 0.0
2016-Feb-10 12:33N 39°54' W 075°12'0 0.0
2016-Feb-10 11:34N 39°54' W 075°12'0 0.0
2016-Feb-10 10:33N 39°54' W 075°12'0 0.0
2016-Feb-10 09:33N 39°54' W 075°12'0 0.0
2016-Feb-10 08:33N 39°54' W 075°12'0 0.0
2016-Feb-10 07:33N 39°54' W 075°12'0 0.0
2016-Feb-10 06:33N 39°54' W 075°12'0 0.0
2016-Feb-10 05:33N 39°54' W 075°12'0 0.0
2016-Feb-10 04:33N 39°54' W 075°12'0 0.0
2016-Feb-10 03:33N 39°54' W 075°12'0 0.0
2016-Feb-10 02:33N 39°54' W 075°12'0 0.0
2016-Feb-10 01:33N 39°54' W 075°12'0 0.0
2016-Feb-10 00:33N 39°54' W 075°12'0 0.0
2016-Feb-09 23:33N 39°54' W 075°12'0 0.0
2016-Feb-09 22:33N 39°54' W 075°12'0 0.0
2016-Feb-09 21:33N 39°54' W 075°12'0 0.0
2016-Feb-09 20:33N 39°54' W 075°12'0 0.0
2016-Feb-09 19:33N 39°54' W 075°12'0 0.0
2016-Feb-09 18:33N 39°54' W 075°12'0 0.0
2016-Feb-09 17:33N 39°54' W 075°12'0 0.0
2016-Feb-09 16:33N 39°54' W 075°12'0 0.0
2016-Feb-09 15:33N 39°54' W 075°12'0 0.0
2016-Feb-09 14:33N 39°54' W 075°12'0 0.0
2016-Feb-09 13:33N 39°54' W 075°12'0 0.0
2016-Feb-09 12:33N 39°54' W 075°12'0 0.0
2016-Feb-09 11:34N 39°54' W 075°12'0 0.0
2016-Feb-09 10:33N 39°54' W 075°12'0 0.0
2016-Feb-09 09:33N 39°54' W 075°12'0 0.0
2016-Feb-09 08:33N 39°54' W 075°12'0 0.0
2016-Feb-09 07:34N 39°54' W 075°12'0 0.0
2016-Feb-09 06:33N 39°54' W 075°12'0 0.0
2016-Feb-09 05:33N 39°54' W 075°12'0 0.0
2016-Feb-09 04:33N 39°54' W 075°12'0 0.0
2016-Feb-09 03:33N 39°54' W 075°12'0 0.0
2016-Feb-09 02:33N 39°54' W 075°12'0 0.0
2016-Feb-09 01:33N 39°54' W 075°12'0 0.0
2016-Feb-09 00:33N 39°54' W 075°12'0 0.0
2016-Feb-08 23:33N 39°54' W 075°12'0 0.0
2016-Feb-08 22:34N 39°54' W 075°12'0 0.0
2016-Feb-08 21:33N 39°54' W 075°12'0 0.0
2016-Feb-08 20:34N 39°54' W 075°12'0 0.0
2016-Feb-08 19:33N 39°54' W 075°12'0 0.0
2016-Feb-08 18:33N 39°54' W 075°12'0 0.0
2016-Feb-08 17:33N 39°54' W 075°12'0 0.0
2016-Feb-08 16:33N 39°54' W 075°12'0 0.0
2016-Feb-08 15:33N 39°54' W 075°12'0 0.1
2016-Feb-08 14:33N 39°54' W 075°12'0 0.0
2016-Feb-08 13:33N 39°54' W 075°12'0 0.0
2016-Feb-08 12:33N 39°54' W 075°12'0 0.0
2016-Feb-08 08:22N 39°54' W 075°12'0 0.0
2016-Feb-08 07:33N 39°54' W 075°12'0 0.0
2016-Feb-08 06:33N 39°54' W 075°12'0 0.0
2016-Feb-08 05:34N 39°54' W 075°12'0 0.0
2016-Feb-08 04:33N 39°54' W 075°12'0 0.0
2016-Feb-08 03:33N 39°54' W 075°12'0 0.0
2016-Feb-08 02:33N 39°54' W 075°12'0 0.0
2016-Feb-08 01:33N 39°54' W 075°12'0 0.0
2016-Feb-08 00:33N 39°54' W 075°12'0 0.1
2016-Feb-07 23:33N 39°54' W 075°12'0 0.0
2016-Feb-07 22:33N 39°54' W 075°12'0 0.1
2016-Feb-07 21:33N 39°54' W 075°12'0 0.0
2016-Feb-07 20:33N 39°54' W 075°12'0 0.0
2016-Feb-07 19:33N 39°54' W 075°12'0 0.0
2016-Feb-07 18:33N 39°54' W 075°12'0 0.0
2016-Feb-07 17:33N 39°54' W 075°12'0 0.0
2016-Feb-07 16:34N 39°54' W 075°12'0 0.2
2016-Feb-07 15:33N 39°54' W 075°12'0 0.0
2016-Feb-07 14:33N 39°54' W 075°12'0 0.5
2016-Feb-07 13:33N 39°53' W 075°12'3 3.5
2016-Feb-07 12:33N 39°55' W 075°08'0 0.0
2016-Feb-07 11:33N 39°55' W 075°08'0 0.0
2016-Feb-07 10:33N 39°55' W 075°08'0 0.0
2016-Feb-07 09:33N 39°55' W 075°08'0 0.0
2016-Feb-07 08:33N 39°55' W 075°08'0 0.0
2016-Feb-07 07:33N 39°55' W 075°08'0 0.0
2016-Feb-07 06:33N 39°55' W 075°08'3 2.6
2016-Feb-07 05:33N 39°58' W 075°08'3 2.6
2016-Feb-07 04:33N 39°59' W 075°04'1 0.8
2016-Feb-07 03:33N 39°59' W 075°05'0 0.0
2016-Feb-07 02:33N 39°59' W 075°05'0 0.0
2016-Feb-07 01:34N 39°59' W 075°05'0 0.0
2016-Feb-07 00:33N 39°59' W 075°05'0 0.0
2016-Feb-06 23:33N 39°59' W 075°05'0 0.0
2016-Feb-06 22:33N 39°59' W 075°05'0 0.0
2016-Feb-06 21:33N 39°59' W 075°05'4 4.1
2016-Feb-06 20:33N 39°55' W 075°08'3 3.2
2016-Feb-06 19:33N 39°54' W 075°12'1 0.5
2016-Feb-06 18:33N 39°54' W 075°12'0 0.0
2016-Feb-06 17:33N 39°54' W 075°12'0 0.0
2016-Feb-06 16:33N 39°54' W 075°12'0 0.0
2016-Feb-06 15:33N 39°54' W 075°12'0 0.0
2016-Feb-06 14:33N 39°54' W 075°12'0 0.0
2016-Feb-06 13:33N 39°54' W 075°12'0 0.0
2016-Feb-06 12:33N 39°54' W 075°12'0 0.0
2016-Feb-06 11:33N 39°54' W 075°12'3 3.0
2016-Feb-06 10:33N 39°53' W 075°08'6 5.8
2016-Feb-06 09:34N 39°59' W 075°05'0 0.0
2016-Feb-06 08:33N 39°59' W 075°05'0 0.0
2016-Feb-06 07:33N 39°59' W 075°05'0 0.0
2016-Feb-06 06:33N 39°59' W 075°05'0 0.0
2016-Feb-06 05:33N 39°59' W 075°05'1 0.7
2016-Feb-06 04:33N 39°59' W 075°04'3 2.6
2016-Feb-06 03:33N 39°58' W 075°08'6 6.4
2016-Feb-06 02:33N 39°53' W 075°12'8 8.1
2016-Feb-06 01:33N 39°50' W 075°22'9 8.6
2016-Feb-06 00:33N 39°44' W 075°30'9 9.2
2016-Feb-05 23:33N 39°35' W 075°33'9 9.0
2016-Feb-05 22:33N 39°26' W 075°32'9 8.8
2016-Feb-05 21:33N 39°20' W 075°25'8 7.8
2016-Feb-05 20:33N 39°14' W 075°18'7 7.0
2016-Feb-05 19:33N 39°08' W 075°13'7 7.0
2016-Feb-05 18:33N 39°01' W 075°10'2 2.2
2016-Feb-05 17:33N 38°59' W 075°08'4 4.0
2016-Feb-05 16:33N 38°56' W 075°06'4 4.2
2016-Feb-05 15:33N 38°52' W 075°04'3 3.4
2016-Feb-05 14:33N 38°49' W 075°02'3 3.3
2016-Feb-05 13:33N 38°48' W 074°58'5 4.8
2016-Feb-05 12:33N 38°50' W 074°52'51 6.4
2016-Feb-05 04:33N 39°31' W 074°12'7 6.7
2016-Feb-05 03:33N 39°36' W 074°07'7 6.7
2016-Feb-05 02:33N 39°42' W 074°03'7 6.5
2016-Feb-05 01:33N 39°49' W 074°02'43 1.1
2016-Feb-03 10:18N 40°31' W 074°18'6 2.8
2016-Feb-03 08:12N 40°30' W 074°10'1 0.3
2016-Feb-03 05:26N 40°30' W 074°09'0 0.0
2016-Feb-03 04:07N 40°30' W 074°09'0 0.0
2016-Feb-03 01:04N 40°30' W 074°09'0 0.0
2016-Feb-03 00:33N 40°30' W 074°09'0 0.0
2016-Feb-02 23:32N 40°30' W 074°09'0 0.0
2016-Feb-02 21:23N 40°30' W 074°09'  
Track history (hours):
 
Tides and Currents Weather Stations Pressure Air Temp Water Temp Dewpoint Dewpoint Depression Visibility Wind Speed Wind Dir Waves Ship Positions

Wye River

Owner: Vane Line Bunkering, Inc., Baltimore, MD. More information available from US FCC via Universal Licensing System and Coast Guard Vessel Documentation Center.

Last reported at 2016-Feb-12 13:33 UTC. Time now 2016-Feb-13 17:19 UTC.
Position N 40°39' W 074°09'.

Length 30 m; draft 4.3 m.

Type: Tow > 200 m length. MMSI: 367341190.

Date/timePositionNaut miles runAvg speedWind from/ knotsBaromVisibWave heightAir tempDewpointWater temp
2016-Feb-12 13:33N 40°39' W 074°09'2 1.5
2016-Feb-12 12:06N 40°41' W 074°09'0 0.0
2016-Feb-12 10:20N 40°41' W 074°09'0 0.0
2016-Feb-12 05:25N 40°41' W 074°09'0 0.0
2016-Feb-12 04:27N 40°41' W 074°09'0 0.0
2016-Feb-12 03:33N 40°41' W 074°09'0 0.0
2016-Feb-12 02:33N 40°41' W 074°09'0 0.0
2016-Feb-12 01:24N 40°41' W 074°09'3 3.7
2016-Feb-12 00:33N 40°39' W 074°07'3 3.2
2016-Feb-11 23:33N 40°37' W 074°03'6 6.5
2016-Feb-11 22:33N 40°44' W 074°01'4 3.8
2016-Feb-11 21:33N 40°40' W 074°03'52 3.7
2016-Feb-11 07:33N 39°48' W 074°03'9 9.3
2016-Feb-11 06:33N 39°39' W 074°07'60 9.5
2016-Feb-11 00:14N 38°50' W 074°52'6 9.0
2016-Feb-10 23:33N 38°48' W 074°59'9 8.5
2016-Feb-10 22:33N 38°55' W 075°05'50 9.7
2016-Feb-10 17:22N 39°42' W 075°31'6 7.6
2016-Feb-10 16:33N 39°47' W 075°27'4 4.2
2016-Feb-10 15:33N 39°49' W 075°23'7 6.9
2016-Feb-10 14:33N 39°51' W 075°14'3 2.7
2016-Feb-10 13:33N 39°54' W 075°12'0 0.0
2016-Feb-10 12:33N 39°54' W 075°12'0 0.0
2016-Feb-10 11:34N 39°54' W 075°12'0 0.0
2016-Feb-10 10:33N 39°54' W 075°12'0 0.0
2016-Feb-10 09:33N 39°54' W 075°12'0 0.0
2016-Feb-10 08:33N 39°54' W 075°12'0 0.0
2016-Feb-10 07:33N 39°54' W 075°12'0 0.0
2016-Feb-10 06:33N 39°54' W 075°12'0 0.0
2016-Feb-10 05:33N 39°54' W 075°12'0 0.0
2016-Feb-10 04:33N 39°54' W 075°12'0 0.0
2016-Feb-10 03:33N 39°54' W 075°12'0 0.0
2016-Feb-10 02:33N 39°54' W 075°12'0 0.0
2016-Feb-10 01:33N 39°54' W 075°12'0 0.0
2016-Feb-10 00:33N 39°54' W 075°12'0 0.0
2016-Feb-09 23:33N 39°54' W 075°12'0 0.0
2016-Feb-09 22:33N 39°54' W 075°12'0 0.0
2016-Feb-09 21:33N 39°54' W 075°12'0 0.0
2016-Feb-09 20:33N 39°54' W 075°12'0 0.0
2016-Feb-09 19:33N 39°54' W 075°12'0 0.0
2016-Feb-09 18:33N 39°54' W 075°12'0 0.0
2016-Feb-09 17:33N 39°54' W 075°12'0 0.0
2016-Feb-09 16:33N 39°54' W 075°12'0 0.0
2016-Feb-09 15:33N 39°54' W 075°12'0 0.0
2016-Feb-09 14:33N 39°54' W 075°12'0 0.0
2016-Feb-09 13:33N 39°54' W 075°12'0 0.0
2016-Feb-09 12:33N 39°54' W 075°12'0 0.0
2016-Feb-09 11:34N 39°54' W 075°12'0 0.0
2016-Feb-09 10:33N 39°54' W 075°12'0 0.0
2016-Feb-09 09:33N 39°54' W 075°12'0 0.0
2016-Feb-09 08:33N 39°54' W 075°12'0 0.0
2016-Feb-09 07:34N 39°54' W 075°12'0 0.0
2016-Feb-09 06:33N 39°54' W 075°12'0 0.0
2016-Feb-09 05:33N 39°54' W 075°12'0 0.0
2016-Feb-09 04:33N 39°54' W 075°12'0 0.0
2016-Feb-09 03:33N 39°54' W 075°12'0 0.0
2016-Feb-09 02:33N 39°54' W 075°12'0 0.0
2016-Feb-09 01:33N 39°54' W 075°12'0 0.0
2016-Feb-09 00:33N 39°54' W 075°12'0 0.0
2016-Feb-08 23:33N 39°54' W 075°12'0 0.0
2016-Feb-08 22:34N 39°54' W 075°12'0 0.0
2016-Feb-08 21:33N 39°54' W 075°12'0 0.0
2016-Feb-08 20:34N 39°54' W 075°12'0 0.0
2016-Feb-08 19:33N 39°54' W 075°12'0 0.0
2016-Feb-08 18:33N 39°54' W 075°12'0 0.0
2016-Feb-08 17:33N 39°54' W 075°12'0 0.0
2016-Feb-08 16:33N 39°54' W 075°12'0 0.0
2016-Feb-08 15:33N 39°54' W 075°12'0 0.1
2016-Feb-08 14:33N 39°54' W 075°12'0 0.0
2016-Feb-08 13:33N 39°54' W 075°12'0 0.0
2016-Feb-08 12:33N 39°54' W 075°12'0 0.0
2016-Feb-08 08:22N 39°54' W 075°12'0 0.0
2016-Feb-08 07:33N 39°54' W 075°12'0 0.0
2016-Feb-08 06:33N 39°54' W 075°12'0 0.0
2016-Feb-08 05:34N 39°54' W 075°12'0 0.0
2016-Feb-08 04:33N 39°54' W 075°12'0 0.0
2016-Feb-08 03:33N 39°54' W 075°12'0 0.0
2016-Feb-08 02:33N 39°54' W 075°12'0 0.0
2016-Feb-08 01:33N 39°54' W 075°12'0 0.0
2016-Feb-08 00:33N 39°54' W 075°12'0 0.1
2016-Feb-07 23:33N 39°54' W 075°12'0 0.0
2016-Feb-07 22:33N 39°54' W 075°12'0 0.1
2016-Feb-07 21:33N 39°54' W 075°12'0 0.0
2016-Feb-07 20:33N 39°54' W 075°12'0 0.0
2016-Feb-07 19:33N 39°54' W 075°12'0 0.0
2016-Feb-07 18:33N 39°54' W 075°12'0 0.0
2016-Feb-07 17:33N 39°54' W 075°12'0 0.0
2016-Feb-07 16:34N 39°54' W 075°12'0 0.2
2016-Feb-07 15:33N 39°54' W 075°12'0 0.0
2016-Feb-07 14:33N 39°54' W 075°12'0 0.5
2016-Feb-07 13:33N 39°53' W 075°12'3 3.5
2016-Feb-07 12:33N 39°55' W 075°08'0 0.0
2016-Feb-07 11:33N 39°55' W 075°08'0 0.0
2016-Feb-07 10:33N 39°55' W 075°08'0 0.0
2016-Feb-07 09:33N 39°55' W 075°08'0 0.0
2016-Feb-07 08:33N 39°55' W 075°08'0 0.0
2016-Feb-07 07:33N 39°55' W 075°08'0 0.0
2016-Feb-07 06:33N 39°55' W 075°08'3 2.6
2016-Feb-07 05:33N 39°58' W 075°08'3 2.6
2016-Feb-07 04:33N 39°59' W 075°04'1 0.8
2016-Feb-07 03:33N 39°59' W 075°05'0 0.0
2016-Feb-07 02:33N 39°59' W 075°05'0 0.0
2016-Feb-07 01:34N 39°59' W 075°05'0 0.0
2016-Feb-07 00:33N 39°59' W 075°05'0 0.0
2016-Feb-06 23:33N 39°59' W 075°05'0 0.0
2016-Feb-06 22:33N 39°59' W 075°05'0 0.0
2016-Feb-06 21:33N 39°59' W 075°05'4 4.1
2016-Feb-06 20:33N 39°55' W 075°08'3 3.2
2016-Feb-06 19:33N 39°54' W 075°12'1 0.5
2016-Feb-06 18:33N 39°54' W 075°12'0 0.0
2016-Feb-06 17:33N 39°54' W 075°12'0 0.0
2016-Feb-06 16:33N 39°54' W 075°12'0 0.0
2016-Feb-06 15:33N 39°54' W 075°12'0 0.0
2016-Feb-06 14:33N 39°54' W 075°12'0 0.0
2016-Feb-06 13:33N 39°54' W 075°12'0 0.0
2016-Feb-06 12:33N 39°54' W 075°12'0 0.0
2016-Feb-06 11:33N 39°54' W 075°12'3 3.0
2016-Feb-06 10:33N 39°53' W 075°08'6 5.8
2016-Feb-06 09:34N 39°59' W 075°05'0 0.0
2016-Feb-06 08:33N 39°59' W 075°05'0 0.0
2016-Feb-06 07:33N 39°59' W 075°05'0 0.0
2016-Feb-06 06:33N 39°59' W 075°05'0 0.0
2016-Feb-06 05:33N 39°59' W 075°05'1 0.7
2016-Feb-06 04:33N 39°59' W 075°04'3 2.6
2016-Feb-06 03:33N 39°58' W 075°08'6 6.4
2016-Feb-06 02:33N 39°53' W 075°12'8 8.1
2016-Feb-06 01:33N 39°50' W 075°22'9 8.6
2016-Feb-06 00:33N 39°44' W 075°30'9 9.2
2016-Feb-05 23:33N 39°35' W 075°33'9 9.0
2016-Feb-05 22:33N 39°26' W 075°32'9 8.8
2016-Feb-05 21:33N 39°20' W 075°25'8 7.8
2016-Feb-05 20:33N 39°14' W 075°18'7 7.0
2016-Feb-05 19:33N 39°08' W 075°13'7 7.0
2016-Feb-05 18:33N 39°01' W 075°10'2 2.2
2016-Feb-05 17:33N 38°59' W 075°08'4 4.0
2016-Feb-05 16:33N 38°56' W 075°06'4 4.2
2016-Feb-05 15:33N 38°52' W 075°04'3 3.4
2016-Feb-05 14:33N 38°49' W 075°02'3 3.3
2016-Feb-05 13:33N 38°48' W 074°58'5 4.8
2016-Feb-05 12:33N 38°50' W 074°52'51 6.4
2016-Feb-05 04:33N 39°31' W 074°12'7 6.7
2016-Feb-05 03:33N 39°36' W 074°07'7 6.7
2016-Feb-05 02:33N 39°42' W 074°03'7 6.5
2016-Feb-05 01:33N 39°49' W 074°02'43 1.1
2016-Feb-03 10:18N 40°31' W 074°18'6 2.8
2016-Feb-03 08:12N 40°30' W 074°10'1 0.3
2016-Feb-03 05:26N 40°30' W 074°09'0 0.0
2016-Feb-03 04:07N 40°30' W 074°09'0 0.0
2016-Feb-03 01:04N 40°30' W 074°09'0 0.0
2016-Feb-03 00:33N 40°30' W 074°09'0 0.0
2016-Feb-02 23:32N 40°30' W 074°09'0 0.0
2016-Feb-02 21:23N 40°30' W 074°09'  

Dump ship's entire track history